sensor_id;sensor_type;location;lat;lon;timestamp;P1;durP1;ratioP1;P2;durP2;ratioP2
17127;SDS011;8679;50.842;4.322;2023-08-20T00:00:00;2.75;;;1.05;;
17127;SDS011;8679;50.842;4.322;2023-08-20T00:02:28;0.50;;;0.43;;
17127;SDS011;8679;50.842;4.322;2023-08-20T00:04:56;3.00;;;1.20;;
17127;SDS011;8679;50.842;4.322;2023-08-20T00:07:23;5.15;;;0.60;;
17127;SDS011;8679;50.842;4.322;2023-08-20T00:09:49;3.55;;;1.25;;
17127;SDS011;8679;50.842;4.322;2023-08-20T00:12:15;4.57;;;0.68;;
17127;SDS011;8679;50.842;4.322;2023-08-20T00:14:57;3.85;;;0.63;;
17127;SDS011;8679;50.842;4.322;2023-08-20T00:17:29;2.45;;;0.85;;
17127;SDS011;8679;50.842;4.322;2023-08-20T00:19:55;2.53;;;0.80;;
17127;SDS011;8679;50.842;4.322;2023-08-20T00:22:22;1.67;;;0.88;;
17127;SDS011;8679;50.842;4.322;2023-08-20T00:24:49;0.57;;;0.40;;
17127;SDS011;8679;50.842;4.322;2023-08-20T00:27:15;1.10;;;0.88;;
17127;SDS011;8679;50.842;4.322;2023-08-20T00:29:41;2.13;;;1.17;;
17127;SDS011;8679;50.842;4.322;2023-08-20T00:32:07;2.53;;;1.00;;
17127;SDS011;8679;50.842;4.322;2023-08-20T00:34:33;2.42;;;0.90;;
17127;SDS011;8679;50.842;4.322;2023-08-20T00:37:00;2.70;;;0.68;;
17127;SDS011;8679;50.842;4.322;2023-08-20T00:39:26;1.40;;;0.65;;
17127;SDS011;8679;50.842;4.322;2023-08-20T00:41:52;1.80;;;0.77;;
17127;SDS011;8679;50.842;4.322;2023-08-20T00:44:18;1.52;;;0.90;;
17127;SDS011;8679;50.842;4.322;2023-08-20T00:46:44;1.27;;;1.00;;
17127;SDS011;8679;50.842;4.322;2023-08-20T00:49:11;4.20;;;0.80;;
17127;SDS011;8679;50.842;4.322;2023-08-20T00:51:37;6.05;;;1.45;;
17127;SDS011;8679;50.842;4.322;2023-08-20T00:54:03;3.78;;;1.05;;
17127;SDS011;8679;50.842;4.322;2023-08-20T00:56:30;1.65;;;0.60;;
17127;SDS011;8679;50.842;4.322;2023-08-20T00:58:56;0.80;;;0.52;;
17127;SDS011;8679;50.842;4.322;2023-08-20T01:01:22;1.77;;;0.68;;
17127;SDS011;8679;50.842;4.322;2023-08-20T01:03:48;0.60;;;0.47;;
17127;SDS011;8679;50.842;4.322;2023-08-20T01:09:07;2.30;;;0.88;;
17127;SDS011;8679;50.842;4.322;2023-08-20T01:11:37;1.65;;;0.95;;
17127;SDS011;8679;50.842;4.322;2023-08-20T01:14:14;5.30;;;1.17;;
17127;SDS011;8679;50.842;4.322;2023-08-20T01:16:41;1.70;;;0.75;;
17127;SDS011;8679;50.842;4.322;2023-08-20T01:19:07;6.05;;;1.65;;
17127;SDS011;8679;50.842;4.322;2023-08-20T01:21:39;3.63;;;1.35;;
17127;SDS011;8679;50.842;4.322;2023-08-20T01:24:05;1.17;;;0.60;;
17127;SDS011;8679;50.842;4.322;2023-08-20T01:26:48;0.70;;;0.40;;
17127;SDS011;8679;50.842;4.322;2023-08-20T01:29:17;2.88;;;0.63;;
17127;SDS011;8679;50.842;4.322;2023-08-20T01:31:43;1.02;;;0.70;;
17127;SDS011;8679;50.842;4.322;2023-08-20T01:34:10;1.10;;;0.90;;
17127;SDS011;8679;50.842;4.322;2023-08-20T01:36:37;1.63;;;0.90;;
17127;SDS011;8679;50.842;4.322;2023-08-20T01:39:03;3.33;;;0.90;;
17127;SDS011;8679;50.842;4.322;2023-08-20T01:41:30;1.33;;;0.73;;
17127;SDS011;8679;50.842;4.322;2023-08-20T01:43:56;4.93;;;1.08;;
17127;SDS011;8679;50.842;4.322;2023-08-20T01:46:22;2.95;;;1.23;;
17127;SDS011;8679;50.842;4.322;2023-08-20T01:48:48;2.10;;;1.10;;
17127;SDS011;8679;50.842;4.322;2023-08-20T01:51:14;4.35;;;1.27;;
17127;SDS011;8679;50.842;4.322;2023-08-20T01:53:40;4.00;;;0.75;;
17127;SDS011;8679;50.842;4.322;2023-08-20T01:56:10;4.10;;;1.55;;
17127;SDS011;8679;50.842;4.322;2023-08-20T01:58:37;1.17;;;0.65;;
17127;SDS011;8679;50.842;4.322;2023-08-20T02:01:03;3.33;;;0.77;;
17127;SDS011;8679;50.842;4.322;2023-08-20T02:03:29;2.53;;;1.27;;
17127;SDS011;8679;50.842;4.322;2023-08-20T02:05:55;2.92;;;0.65;;
17127;SDS011;8679;50.842;4.322;2023-08-20T02:08:21;1.20;;;0.68;;
17127;SDS011;8679;50.842;4.322;2023-08-20T02:10:47;3.90;;;1.50;;
17127;SDS011;8679;50.842;4.322;2023-08-20T02:13:13;4.35;;;1.48;;
17127;SDS011;8679;50.842;4.322;2023-08-20T02:15:39;5.47;;;1.40;;
17127;SDS011;8679;50.842;4.322;2023-08-20T02:18:05;2.78;;;0.70;;
17127;SDS011;8679;50.842;4.322;2023-08-20T02:20:31;4.60;;;1.67;;
17127;SDS011;8679;50.842;4.322;2023-08-20T02:22:58;1.60;;;1.08;;
17127;SDS011;8679;50.842;4.322;2023-08-20T02:25:24;5.03;;;1.27;;
17127;SDS011;8679;50.842;4.322;2023-08-20T02:27:50;5.25;;;0.95;;
17127;SDS011;8679;50.842;4.322;2023-08-20T02:30:16;2.10;;;1.05;;
17127;SDS011;8679;50.842;4.322;2023-08-20T02:32:42;3.05;;;1.58;;
17127;SDS011;8679;50.842;4.322;2023-08-20T02:35:08;3.35;;;1.13;;
17127;SDS011;8679;50.842;4.322;2023-08-20T02:37:34;4.65;;;1.38;;
17127;SDS011;8679;50.842;4.322;2023-08-20T02:40:01;4.78;;;1.25;;
17127;SDS011;8679;50.842;4.322;2023-08-20T02:42:28;2.75;;;1.40;;
17127;SDS011;8679;50.842;4.322;2023-08-20T02:44:54;4.65;;;1.33;;
17127;SDS011;8679;50.842;4.322;2023-08-20T02:47:20;2.50;;;1.00;;
17127;SDS011;8679;50.842;4.322;2023-08-20T02:49:46;2.35;;;1.55;;
17127;SDS011;8679;50.842;4.322;2023-08-20T02:52:12;3.53;;;0.85;;
17127;SDS011;8679;50.842;4.322;2023-08-20T02:54:38;4.10;;;0.85;;
17127;SDS011;8679;50.842;4.322;2023-08-20T02:57:04;2.47;;;1.33;;
17127;SDS011;8679;50.842;4.322;2023-08-20T02:59:30;3.00;;;0.85;;
17127;SDS011;8679;50.842;4.322;2023-08-20T03:01:57;2.78;;;1.23;;
17127;SDS011;8679;50.842;4.322;2023-08-20T03:04:23;2.90;;;0.77;;
17127;SDS011;8679;50.842;4.322;2023-08-20T03:06:49;4.00;;;1.30;;
17127;SDS011;8679;50.842;4.322;2023-08-20T03:09:15;2.90;;;1.60;;
17127;SDS011;8679;50.842;4.322;2023-08-20T03:11:41;2.15;;;1.23;;
17127;SDS011;8679;50.842;4.322;2023-08-20T03:14:07;3.08;;;1.13;;
17127;SDS011;8679;50.842;4.322;2023-08-20T03:16:34;3.65;;;1.70;;
17127;SDS011;8679;50.842;4.322;2023-08-20T03:19:00;2.58;;;1.13;;
17127;SDS011;8679;50.842;4.322;2023-08-20T03:21:26;2.03;;;1.13;;
17127;SDS011;8679;50.842;4.322;2023-08-20T03:23:52;4.45;;;1.10;;
17127;SDS011;8679;50.842;4.322;2023-08-20T03:26:18;10.18;;;1.95;;
17127;SDS011;8679;50.842;4.322;2023-08-20T03:28:44;4.22;;;1.10;;
17127;SDS011;8679;50.842;4.322;2023-08-20T03:31:10;2.70;;;1.40;;
17127;SDS011;8679;50.842;4.322;2023-08-20T03:33:36;2.33;;;0.82;;
17127;SDS011;8679;50.842;4.322;2023-08-20T03:36:02;2.80;;;1.42;;
17127;SDS011;8679;50.842;4.322;2023-08-20T03:38:28;2.72;;;2.10;;
17127;SDS011;8679;50.842;4.322;2023-08-20T03:40:54;5.57;;;1.63;;
17127;SDS011;8679;50.842;4.322;2023-08-20T03:43:21;2.55;;;1.35;;
17127;SDS011;8679;50.842;4.322;2023-08-20T03:45:53;2.88;;;1.40;;
17127;SDS011;8679;50.842;4.322;2023-08-20T03:48:19;1.98;;;1.20;;
17127;SDS011;8679;50.842;4.322;2023-08-20T03:50:46;1.63;;;1.15;;
17127;SDS011;8679;50.842;4.322;2023-08-20T03:53:12;1.85;;;1.45;;
17127;SDS011;8679;50.842;4.322;2023-08-20T03:55:38;3.35;;;1.42;;
17127;SDS011;8679;50.842;4.322;2023-08-20T03:58:04;3.55;;;1.25;;
17127;SDS011;8679;50.842;4.322;2023-08-20T04:00:30;2.33;;;1.45;;
17127;SDS011;8679;50.842;4.322;2023-08-20T04:02:56;3.00;;;1.77;;
17127;SDS011;8679;50.842;4.322;2023-08-20T04:05:22;2.55;;;1.15;;
17127;SDS011;8679;50.842;4.322;2023-08-20T04:07:48;3.10;;;0.85;;
17127;SDS011;8679;50.842;4.322;2023-08-20T04:10:14;2.58;;;1.38;;
17127;SDS011;8679;50.842;4.322;2023-08-20T04:12:40;1.55;;;1.10;;
17127;SDS011;8679;50.842;4.322;2023-08-20T04:15:06;3.80;;;0.90;;
17127;SDS011;8679;50.842;4.322;2023-08-20T04:17:32;1.92;;;0.80;;
17127;SDS011;8679;50.842;4.322;2023-08-20T04:19:58;2.33;;;1.30;;
17127;SDS011;8679;50.842;4.322;2023-08-20T04:22:24;1.60;;;0.90;;
17127;SDS011;8679;50.842;4.322;2023-08-20T04:24:50;1.60;;;0.90;;
17127;SDS011;8679;50.842;4.322;2023-08-20T04:27:17;2.42;;;1.20;;
17127;SDS011;8679;50.842;4.322;2023-08-20T04:29:43;3.20;;;0.95;;
17127;SDS011;8679;50.842;4.322;2023-08-20T04:32:09;2.40;;;1.20;;
17127;SDS011;8679;50.842;4.322;2023-08-20T04:34:35;3.95;;;1.40;;
17127;SDS011;8679;50.842;4.322;2023-08-20T04:37:01;2.40;;;1.17;;
17127;SDS011;8679;50.842;4.322;2023-08-20T04:39:27;9.68;;;1.48;;
17127;SDS011;8679;50.842;4.322;2023-08-20T04:41:53;2.33;;;1.13;;
17127;SDS011;8679;50.842;4.322;2023-08-20T04:44:22;0.98;;;0.88;;
17127;SDS011;8679;50.842;4.322;2023-08-20T04:46:49;5.72;;;0.95;;
17127;SDS011;8679;50.842;4.322;2023-08-20T04:49:15;3.33;;;1.25;;
17127;SDS011;8679;50.842;4.322;2023-08-20T04:51:41;4.30;;;1.83;;
17127;SDS011;8679;50.842;4.322;2023-08-20T04:54:07;1.65;;;1.05;;
17127;SDS011;8679;50.842;4.322;2023-08-20T04:56:33;8.90;;;1.48;;
17127;SDS011;8679;50.842;4.322;2023-08-20T04:58:59;1.60;;;0.80;;
17127;SDS011;8679;50.842;4.322;2023-08-20T05:01:25;1.55;;;1.10;;
17127;SDS011;8679;50.842;4.322;2023-08-20T05:03:51;2.03;;;0.90;;
17127;SDS011;8679;50.842;4.322;2023-08-20T05:06:17;2.13;;;0.98;;
17127;SDS011;8679;50.842;4.322;2023-08-20T05:08:43;4.07;;;1.33;;
17127;SDS011;8679;50.842;4.322;2023-08-20T05:11:09;3.10;;;1.33;;
17127;SDS011;8679;50.842;4.322;2023-08-20T05:13:35;1.33;;;1.20;;
17127;SDS011;8679;50.842;4.322;2023-08-20T05:16:01;3.80;;;1.23;;
17127;SDS011;8679;50.842;4.322;2023-08-20T05:18:27;4.47;;;1.23;;
17127;SDS011;8679;50.842;4.322;2023-08-20T05:20:53;1.17;;;1.08;;
17127;SDS011;8679;50.842;4.322;2023-08-20T05:23:19;1.40;;;1.00;;
17127;SDS011;8679;50.842;4.322;2023-08-20T05:25:45;4.65;;;1.67;;
17127;SDS011;8679;50.842;4.322;2023-08-20T05:28:11;1.10;;;0.95;;
17127;SDS011;8679;50.842;4.322;2023-08-20T05:30:37;4.47;;;1.30;;
17127;SDS011;8679;50.842;4.322;2023-08-20T05:33:03;2.83;;;1.45;;
17127;SDS011;8679;50.842;4.322;2023-08-20T05:35:30;2.08;;;1.17;;
17127;SDS011;8679;50.842;4.322;2023-08-20T05:37:56;4.43;;;1.50;;
17127;SDS011;8679;50.842;4.322;2023-08-20T05:40:22;2.58;;;0.93;;
17127;SDS011;8679;50.842;4.322;2023-08-20T05:42:48;1.30;;;1.00;;
17127;SDS011;8679;50.842;4.322;2023-08-20T05:45:14;3.03;;;1.27;;
17127;SDS011;8679;50.842;4.322;2023-08-20T05:47:40;4.90;;;1.45;;
17127;SDS011;8679;50.842;4.322;2023-08-20T05:50:06;3.83;;;1.45;;
17127;SDS011;8679;50.842;4.322;2023-08-20T05:52:32;1.83;;;1.05;;
17127;SDS011;8679;50.842;4.322;2023-08-20T05:54:58;1.75;;;1.20;;
17127;SDS011;8679;50.842;4.322;2023-08-20T05:57:24;1.67;;;1.02;;
17127;SDS011;8679;50.842;4.322;2023-08-20T05:59:50;2.30;;;1.15;;
17127;SDS011;8679;50.842;4.322;2023-08-20T06:02:16;4.50;;;1.10;;
17127;SDS011;8679;50.842;4.322;2023-08-20T06:04:43;2.67;;;0.70;;
17127;SDS011;8679;50.842;4.322;2023-08-20T06:07:09;4.35;;;1.40;;
17127;SDS011;8679;50.842;4.322;2023-08-20T06:09:35;2.92;;;1.70;;
17127;SDS011;8679;50.842;4.322;2023-08-20T06:12:01;2.40;;;1.00;;
17127;SDS011;8679;50.842;4.322;2023-08-20T06:14:27;1.50;;;1.30;;
17127;SDS011;8679;50.842;4.322;2023-08-20T06:16:53;2.75;;;1.67;;
17127;SDS011;8679;50.842;4.322;2023-08-20T06:19:20;1.35;;;1.13;;
17127;SDS011;8679;50.842;4.322;2023-08-20T06:21:46;2.78;;;1.25;;
17127;SDS011;8679;50.842;4.322;2023-08-20T06:24:12;4.13;;;1.15;;
17127;SDS011;8679;50.842;4.322;2023-08-20T06:26:38;0.75;;;0.75;;
17127;SDS011;8679;50.842;4.322;2023-08-20T06:29:04;2.80;;;1.23;;
17127;SDS011;8679;50.842;4.322;2023-08-20T06:31:30;3.00;;;1.58;;
17127;SDS011;8679;50.842;4.322;2023-08-20T06:33:56;1.27;;;0.95;;
17127;SDS011;8679;50.842;4.322;2023-08-20T06:36:22;2.30;;;1.70;;
17127;SDS011;8679;50.842;4.322;2023-08-20T06:38:48;5.63;;;1.67;;
17127;SDS011;8679;50.842;4.322;2023-08-20T06:41:14;2.47;;;1.27;;
17127;SDS011;8679;50.842;4.322;2023-08-20T06:43:40;1.52;;;0.80;;
17127;SDS011;8679;50.842;4.322;2023-08-20T06:46:07;5.07;;;1.45;;
17127;SDS011;8679;50.842;4.322;2023-08-20T06:48:34;1.80;;;1.08;;
17127;SDS011;8679;50.842;4.322;2023-08-20T06:51:19;1.08;;;0.98;;
17127;SDS011;8679;50.842;4.322;2023-08-20T06:53:46;1.20;;;0.90;;
17127;SDS011;8679;50.842;4.322;2023-08-20T06:56:12;3.63;;;1.33;;
17127;SDS011;8679;50.842;4.322;2023-08-20T06:58:39;1.95;;;0.90;;
17127;SDS011;8679;50.842;4.322;2023-08-20T07:01:05;1.48;;;0.77;;
17127;SDS011;8679;50.842;4.322;2023-08-20T07:03:37;3.22;;;1.20;;
17127;SDS011;8679;50.842;4.322;2023-08-20T07:06:03;2.70;;;0.88;;
17127;SDS011;8679;50.842;4.322;2023-08-20T07:08:29;4.13;;;1.25;;
17127;SDS011;8679;50.842;4.322;2023-08-20T07:10:55;3.28;;;1.60;;
17127;SDS011;8679;50.842;4.322;2023-08-20T07:13:22;2.78;;;0.77;;
17127;SDS011;8679;50.842;4.322;2023-08-20T07:15:48;1.65;;;0.82;;
17127;SDS011;8679;50.842;4.322;2023-08-20T07:18:14;3.40;;;0.60;;
17127;SDS011;8679;50.842;4.322;2023-08-20T07:20:43;1.02;;;0.70;;
17127;SDS011;8679;50.842;4.322;2023-08-20T07:23:10;1.15;;;0.65;;
17127;SDS011;8679;50.842;4.322;2023-08-20T07:25:40;1.52;;;0.73;;
17127;SDS011;8679;50.842;4.322;2023-08-20T07:28:07;1.38;;;0.88;;
17127;SDS011;8679;50.842;4.322;2023-08-20T07:30:34;0.40;;;0.40;;
17127;SDS011;8679;50.842;4.322;2023-08-20T07:33:00;1.10;;;0.47;;
17127;SDS011;8679;50.842;4.322;2023-08-20T07:35:26;0.70;;;0.52;;
17127;SDS011;8679;50.842;4.322;2023-08-20T07:37:52;1.08;;;0.52;;
17127;SDS011;8679;50.842;4.322;2023-08-20T07:40:18;1.88;;;0.75;;
17127;SDS011;8679;50.842;4.322;2023-08-20T07:42:44;1.40;;;0.82;;
17127;SDS011;8679;50.842;4.322;2023-08-20T07:45:10;0.60;;;0.40;;
17127;SDS011;8679;50.842;4.322;2023-08-20T07:47:37;2.40;;;0.82;;
17127;SDS011;8679;50.842;4.322;2023-08-20T07:50:03;1.27;;;0.50;;
17127;SDS011;8679;50.842;4.322;2023-08-20T07:52:30;0.40;;;0.40;;
17127;SDS011;8679;50.842;4.322;2023-08-20T07:54:56;1.08;;;0.90;;
17127;SDS011;8679;50.842;4.322;2023-08-20T07:57:22;2.03;;;0.80;;
17127;SDS011;8679;50.842;4.322;2023-08-20T07:59:48;0.95;;;0.63;;
17127;SDS011;8679;50.842;4.322;2023-08-20T08:02:15;3.13;;;0.73;;
17127;SDS011;8679;50.842;4.322;2023-08-20T08:04:41;1.95;;;0.85;;
17127;SDS011;8679;50.842;4.322;2023-08-20T08:07:07;1.10;;;1.00;;
17127;SDS011;8679;50.842;4.322;2023-08-20T08:09:33;0.75;;;0.65;;
17127;SDS011;8679;50.842;4.322;2023-08-20T08:11:59;1.65;;;0.82;;
17127;SDS011;8679;50.842;4.322;2023-08-20T08:14:26;1.73;;;0.80;;
17127;SDS011;8679;50.842;4.322;2023-08-20T08:16:52;1.55;;;0.68;;
17127;SDS011;8679;50.842;4.322;2023-08-20T08:19:18;2.97;;;0.90;;
17127;SDS011;8679;50.842;4.322;2023-08-20T08:21:47;1.85;;;0.60;;
17127;SDS011;8679;50.842;4.322;2023-08-20T08:24:13;0.93;;;0.60;;
17127;SDS011;8679;50.842;4.322;2023-08-20T08:26:39;0.60;;;0.35;;
17127;SDS011;8679;50.842;4.322;2023-08-20T08:29:06;2.38;;;0.70;;
17127;SDS011;8679;50.842;4.322;2023-08-20T08:31:32;0.63;;;0.40;;
17127;SDS011;8679;50.842;4.322;2023-08-20T08:33:59;0.30;;;0.30;;
17127;SDS011;8679;50.842;4.322;2023-08-20T08:36:25;2.78;;;0.70;;
17127;SDS011;8679;50.842;4.322;2023-08-20T08:38:51;0.85;;;0.35;;
17127;SDS011;8679;50.842;4.322;2023-08-20T08:41:17;0.63;;;0.40;;
17127;SDS011;8679;50.842;4.322;2023-08-20T08:43:45;1.15;;;0.50;;
17127;SDS011;8679;50.842;4.322;2023-08-20T08:46:12;1.73;;;0.50;;
17127;SDS011;8679;50.842;4.322;2023-08-20T08:48:42;0.82;;;0.60;;
17127;SDS011;8679;50.842;4.322;2023-08-20T08:51:08;0.55;;;0.50;;
17127;SDS011;8679;50.842;4.322;2023-08-20T08:53:35;0.75;;;0.35;;
17127;SDS011;8679;50.842;4.322;2023-08-20T08:56:01;0.30;;;0.30;;
17127;SDS011;8679;50.842;4.322;2023-08-20T08:58:28;0.88;;;0.50;;
17127;SDS011;8679;50.842;4.322;2023-08-20T09:00:54;1.38;;;0.85;;
17127;SDS011;8679;50.842;4.322;2023-08-20T09:03:20;0.43;;;0.28;;
17127;SDS011;8679;50.842;4.322;2023-08-20T09:05:49;0.68;;;0.32;;
17127;SDS011;8679;50.842;4.322;2023-08-20T09:08:22;1.17;;;0.43;;
17127;SDS011;8679;50.842;4.322;2023-08-20T09:10:52;0.75;;;0.40;;
17127;SDS011;8679;50.842;4.322;2023-08-20T09:13:25;0.47;;;0.38;;
17127;SDS011;8679;50.842;4.322;2023-08-20T09:15:52;0.85;;;0.40;;
17127;SDS011;8679;50.842;4.322;2023-08-20T09:18:19;1.08;;;0.80;;
17127;SDS011;8679;50.842;4.322;2023-08-20T09:20:46;1.20;;;0.70;;
17127;SDS011;8679;50.842;4.322;2023-08-20T09:23:13;0.98;;;0.50;;
17127;SDS011;8679;50.842;4.322;2023-08-20T09:25:39;0.80;;;0.30;;
17127;SDS011;8679;50.842;4.322;2023-08-20T09:28:05;1.92;;;0.70;;
17127;SDS011;8679;50.842;4.322;2023-08-20T09:30:31;0.88;;;0.50;;
17127;SDS011;8679;50.842;4.322;2023-08-20T09:33:07;0.60;;;0.50;;
17127;SDS011;8679;50.842;4.322;2023-08-20T09:35:33;0.63;;;0.57;;
17127;SDS011;8679;50.842;4.322;2023-08-20T09:38:00;0.82;;;0.50;;
17127;SDS011;8679;50.842;4.322;2023-08-20T09:40:26;1.30;;;0.77;;
17127;SDS011;8679;50.842;4.322;2023-08-20T09:42:56;1.10;;;0.65;;
17127;SDS011;8679;50.842;4.322;2023-08-20T09:45:23;1.48;;;0.88;;
17127;SDS011;8679;50.842;4.322;2023-08-20T09:47:52;2.05;;;0.52;;
17127;SDS011;8679;50.842;4.322;2023-08-20T09:50:19;0.50;;;0.50;;
17127;SDS011;8679;50.842;4.322;2023-08-20T09:53:12;2.85;;;1.10;;
17127;SDS011;8679;50.842;4.322;2023-08-20T09:55:33;1.25;;;0.73;;
17127;SDS011;8679;50.842;4.322;2023-08-20T09:58:02;2.30;;;0.68;;
17127;SDS011;8679;50.842;4.322;2023-08-20T10:00:28;1.67;;;0.60;;
17127;SDS011;8679;50.842;4.322;2023-08-20T10:02:54;1.58;;;0.30;;
17127;SDS011;8679;50.842;4.322;2023-08-20T10:05:20;2.05;;;0.30;;
17127;SDS011;8679;50.842;4.322;2023-08-20T10:07:48;1.10;;;0.75;;
17127;SDS011;8679;50.842;4.322;2023-08-20T10:10:14;0.90;;;0.40;;
17127;SDS011;8679;50.842;4.322;2023-08-20T10:12:42;2.92;;;0.90;;
17127;SDS011;8679;50.842;4.322;2023-08-20T10:15:10;0.55;;;0.40;;
17127;SDS011;8679;50.842;4.322;2023-08-20T10:17:41;0.90;;;0.40;;
17127;SDS011;8679;50.842;4.322;2023-08-20T10:20:08;0.93;;;0.73;;
17127;SDS011;8679;50.842;4.322;2023-08-20T10:22:38;3.63;;;0.40;;
17127;SDS011;8679;50.842;4.322;2023-08-20T10:25:05;2.13;;;0.50;;
17127;SDS011;8679;50.842;4.322;2023-08-20T10:27:32;0.77;;;0.43;;
17127;SDS011;8679;50.842;4.322;2023-08-20T10:29:59;1.48;;;0.30;;
17127;SDS011;8679;50.842;4.322;2023-08-20T10:32:44;0.30;;;0.30;;
17127;SDS011;8679;50.842;4.322;2023-08-20T10:35:23;0.77;;;0.40;;
17127;SDS011;8679;50.842;4.322;2023-08-20T10:38:23;0.32;;;0.30;;
17127;SDS011;8679;50.842;4.322;2023-08-20T10:43:25;0.60;;;0.47;;
17127;SDS011;8679;50.842;4.322;2023-08-20T10:48:38;0.70;;;0.38;;
17127;SDS011;8679;50.842;4.322;2023-08-20T10:51:14;1.02;;;0.45;;
17127;SDS011;8679;50.842;4.322;2023-08-20T10:54:22;0.70;;;0.35;;
17127;SDS011;8679;50.842;4.322;2023-08-20T10:56:54;0.30;;;0.30;;
17127;SDS011;8679;50.842;4.322;2023-08-20T10:59:29;1.30;;;0.80;;
17127;SDS011;8679;50.842;4.322;2023-08-20T11:01:56;0.40;;;0.40;;
17127;SDS011;8679;50.842;4.322;2023-08-20T11:04:23;0.20;;;0.20;;
17127;SDS011;8679;50.842;4.322;2023-08-20T11:06:55;1.67;;;0.70;;
17127;SDS011;8679;50.842;4.322;2023-08-20T11:09:22;1.70;;;1.00;;
17127;SDS011;8679;50.842;4.322;2023-08-20T11:11:49;2.17;;;0.77;;
17127;SDS011;8679;50.842;4.322;2023-08-20T11:14:17;0.70;;;0.60;;
17127;SDS011;8679;50.842;4.322;2023-08-20T11:16:44;2.90;;;1.17;;
17127;SDS011;8679;50.842;4.322;2023-08-20T11:19:10;4.32;;;1.50;;
17127;SDS011;8679;50.842;4.322;2023-08-20T11:21:42;1.00;;;0.40;;
17127;SDS011;8679;50.842;4.322;2023-08-20T11:24:09;2.78;;;0.85;;
17127;SDS011;8679;50.842;4.322;2023-08-20T11:26:37;0.52;;;0.52;;
17127;SDS011;8679;50.842;4.322;2023-08-20T11:29:07;0.60;;;0.40;;
17127;SDS011;8679;50.842;4.322;2023-08-20T11:31:34;0.68;;;0.50;;
17127;SDS011;8679;50.842;4.322;2023-08-20T11:34:01;0.30;;;0.30;;
17127;SDS011;8679;50.842;4.322;2023-08-20T11:36:27;0.43;;;0.40;;
17127;SDS011;8679;50.842;4.322;2023-08-20T11:38:54;2.78;;;0.70;;
17127;SDS011;8679;50.842;4.322;2023-08-20T11:41:20;1.15;;;0.70;;
17127;SDS011;8679;50.842;4.322;2023-08-20T11:43:47;0.80;;;0.63;;
17127;SDS011;8679;50.842;4.322;2023-08-20T11:46:14;1.83;;;0.63;;
17127;SDS011;8679;50.842;4.322;2023-08-20T11:51:28;0.75;;;0.28;;
17127;SDS011;8679;50.842;4.322;2023-08-20T11:53:55;0.35;;;0.25;;
17127;SDS011;8679;50.842;4.322;2023-08-20T11:56:21;0.60;;;0.30;;
17127;SDS011;8679;50.842;4.322;2023-08-20T11:58:50;0.90;;;0.52;;
17127;SDS011;8679;50.842;4.322;2023-08-20T12:01:17;0.30;;;0.30;;
17127;SDS011;8679;50.842;4.322;2023-08-20T12:03:44;0.40;;;0.40;;
17127;SDS011;8679;50.842;4.322;2023-08-20T12:06:19;0.50;;;0.50;;
17127;SDS011;8679;50.842;4.322;2023-08-20T12:08:45;0.95;;;0.50;;
17127;SDS011;8679;50.842;4.322;2023-08-20T12:11:12;0.57;;;0.43;;
17127;SDS011;8679;50.842;4.322;2023-08-20T12:13:38;1.10;;;0.55;;
17127;SDS011;8679;50.842;4.322;2023-08-20T12:16:04;1.10;;;0.50;;
17127;SDS011;8679;50.842;4.322;2023-08-20T12:18:31;0.85;;;0.43;;
17127;SDS011;8679;50.842;4.322;2023-08-20T12:20:57;1.10;;;0.40;;
17127;SDS011;8679;50.842;4.322;2023-08-20T12:23:23;0.93;;;0.40;;
17127;SDS011;8679;50.842;4.322;2023-08-20T12:25:52;1.05;;;0.50;;
17127;SDS011;8679;50.842;4.322;2023-08-20T12:28:18;0.40;;;0.40;;
17127;SDS011;8679;50.842;4.322;2023-08-20T12:30:44;0.43;;;0.30;;
17127;SDS011;8679;50.842;4.322;2023-08-20T12:33:11;0.95;;;0.20;;
17127;SDS011;8679;50.842;4.322;2023-08-20T12:35:37;0.95;;;0.50;;
17127;SDS011;8679;50.842;4.322;2023-08-20T12:38:03;1.08;;;0.30;;
17127;SDS011;8679;50.842;4.322;2023-08-20T12:40:30;1.05;;;0.50;;
17127;SDS011;8679;50.842;4.322;2023-08-20T12:42:56;1.48;;;0.80;;
17127;SDS011;8679;50.842;4.322;2023-08-20T12:45:22;0.30;;;0.30;;
17127;SDS011;8679;50.842;4.322;2023-08-20T12:47:48;2.03;;;0.50;;
17127;SDS011;8679;50.842;4.322;2023-08-20T12:50:14;0.30;;;0.30;;
17127;SDS011;8679;50.842;4.322;2023-08-20T12:52:41;0.93;;;0.50;;
17127;SDS011;8679;50.842;4.322;2023-08-20T12:55:08;1.52;;;0.40;;
17127;SDS011;8679;50.842;4.322;2023-08-20T12:57:34;0.82;;;0.65;;
17127;SDS011;8679;50.842;4.322;2023-08-20T13:00:02;0.20;;;0.20;;
17127;SDS011;8679;50.842;4.322;2023-08-20T13:02:33;1.50;;;0.30;;
17127;SDS011;8679;50.842;4.322;2023-08-20T13:04:59;0.50;;;0.30;;
17127;SDS011;8679;50.842;4.322;2023-08-20T13:07:25;0.75;;;0.30;;
17127;SDS011;8679;50.842;4.322;2023-08-20T13:09:51;1.85;;;0.30;;
17127;SDS011;8679;50.842;4.322;2023-08-20T13:12:17;0.30;;;0.30;;
17127;SDS011;8679;50.842;4.322;2023-08-20T13:14:44;0.65;;;0.25;;
17127;SDS011;8679;50.842;4.322;2023-08-20T13:17:10;1.50;;;0.65;;
17127;SDS011;8679;50.842;4.322;2023-08-20T13:19:36;6.85;;;1.33;;
17127;SDS011;8679;50.842;4.322;2023-08-20T13:22:03;0.77;;;0.50;;
17127;SDS011;8679;50.842;4.322;2023-08-20T13:24:29;0.60;;;0.30;;
17127;SDS011;8679;50.842;4.322;2023-08-20T13:26:55;0.40;;;0.30;;
17127;SDS011;8679;50.842;4.322;2023-08-20T13:29:21;0.22;;;0.22;;
17127;SDS011;8679;50.842;4.322;2023-08-20T13:31:47;0.73;;;0.57;;
17127;SDS011;8679;50.842;4.322;2023-08-20T13:34:13;0.50;;;0.30;;
17127;SDS011;8679;50.842;4.322;2023-08-20T13:36:39;0.20;;;0.20;;
17127;SDS011;8679;50.842;4.322;2023-08-20T13:39:05;0.50;;;0.20;;
17127;SDS011;8679;50.842;4.322;2023-08-20T13:41:31;1.38;;;0.20;;
17127;SDS011;8679;50.842;4.322;2023-08-20T13:44:00;0.85;;;0.47;;
17127;SDS011;8679;50.842;4.322;2023-08-20T13:46:27;0.57;;;0.40;;
17127;SDS011;8679;50.842;4.322;2023-08-20T13:48:54;0.57;;;0.40;;
17127;SDS011;8679;50.842;4.322;2023-08-20T13:51:20;1.30;;;0.52;;
17127;SDS011;8679;50.842;4.322;2023-08-20T13:53:46;0.45;;;0.40;;
17127;SDS011;8679;50.842;4.322;2023-08-20T13:56:12;0.35;;;0.30;;
17127;SDS011;8679;50.842;4.322;2023-08-20T13:58:38;0.30;;;0.30;;
17127;SDS011;8679;50.842;4.322;2023-08-20T14:01:04;0.50;;;0.50;;
17127;SDS011;8679;50.842;4.322;2023-08-20T14:03:31;0.50;;;0.25;;
17127;SDS011;8679;50.842;4.322;2023-08-20T14:05:57;0.57;;;0.40;;
17127;SDS011;8679;50.842;4.322;2023-08-20T14:08:23;0.60;;;0.28;;
17127;SDS011;8679;50.842;4.322;2023-08-20T14:10:49;0.57;;;0.30;;
17127;SDS011;8679;50.842;4.322;2023-08-20T14:13:15;0.30;;;0.30;;
17127;SDS011;8679;50.842;4.322;2023-08-20T14:15:41;0.40;;;0.22;;
17127;SDS011;8679;50.842;4.322;2023-08-20T14:18:07;0.63;;;0.32;;
17127;SDS011;8679;50.842;4.322;2023-08-20T14:20:33;0.68;;;0.40;;
17127;SDS011;8679;50.842;4.322;2023-08-20T14:22:59;1.55;;;0.60;;
17127;SDS011;8679;50.842;4.322;2023-08-20T14:25:25;0.98;;;0.40;;
17127;SDS011;8679;50.842;4.322;2023-08-20T14:27:51;0.52;;;0.40;;
17127;SDS011;8679;50.842;4.322;2023-08-20T14:30:17;0.85;;;0.40;;
17127;SDS011;8679;50.842;4.322;2023-08-20T14:32:43;1.55;;;0.50;;
17127;SDS011;8679;50.842;4.322;2023-08-20T14:35:09;0.32;;;0.30;;
17127;SDS011;8679;50.842;4.322;2023-08-20T14:37:36;2.42;;;0.60;;
17127;SDS011;8679;50.842;4.322;2023-08-20T14:40:02;0.63;;;0.50;;
17127;SDS011;8679;50.842;4.322;2023-08-20T14:42:31;0.57;;;0.50;;
17127;SDS011;8679;50.842;4.322;2023-08-20T14:44:57;0.40;;;0.38;;
17127;SDS011;8679;50.842;4.322;2023-08-20T14:47:23;0.75;;;0.52;;
17127;SDS011;8679;50.842;4.322;2023-08-20T14:49:49;0.63;;;0.35;;
17127;SDS011;8679;50.842;4.322;2023-08-20T14:52:17;1.88;;;0.28;;
17127;SDS011;8679;50.842;4.322;2023-08-20T14:54:43;0.20;;;0.20;;
17127;SDS011;8679;50.842;4.322;2023-08-20T14:57:09;0.45;;;0.30;;
17127;SDS011;8679;50.842;4.322;2023-08-20T14:59:35;0.40;;;0.20;;
17127;SDS011;8679;50.842;4.322;2023-08-20T15:02:02;0.22;;;0.22;;
17127;SDS011;8679;50.842;4.322;2023-08-20T15:04:28;1.08;;;0.35;;
17127;SDS011;8679;50.842;4.322;2023-08-20T15:06:54;0.20;;;0.20;;
17127;SDS011;8679;50.842;4.322;2023-08-20T15:09:20;0.20;;;0.20;;